sensor_id;sensor_type;location;lat;lon;timestamp;pressure;altitude;pressure_sealevel;temperature;humidity
15568;BME280;7885;42.596;23.044;2023-04-30T00:00:18;92676.22;;;10.88;85.17
15568;BME280;7885;42.596;23.044;2023-04-30T00:02:44;92671.66;;;10.78;84.82
15568;BME280;7885;42.596;23.044;2023-04-30T00:05:11;92677.09;;;10.78;84.31
15568;BME280;7885;42.596;23.044;2023-04-30T00:07:38;92676.28;;;10.81;84.03
15568;BME280;7885;42.596;23.044;2023-04-30T00:10:09;92688.75;;;10.78;83.95
15568;BME280;7885;42.596;23.044;2023-04-30T00:12:36;92680.22;;;10.73;84.23
15568;BME280;7885;42.596;23.044;2023-04-30T00:15:03;92684.97;;;10.65;83.52
15568;BME280;7885;42.596;23.044;2023-04-30T00:17:30;92678.06;;;10.53;83.59
15568;BME280;7885;42.596;23.044;2023-04-30T00:19:57;92678.06;;;10.50;83.82
15568;BME280;7885;42.596;23.044;2023-04-30T00:22:24;92683.56;;;10.43;83.96
15568;BME280;7885;42.596;23.044;2023-04-30T00:24:50;92675.16;;;10.23;86.00
15568;BME280;7885;42.596;23.044;2023-04-30T00:27:19;92674.84;;;10.00;86.79
15568;BME280;7885;42.596;23.044;2023-04-30T00:29:46;92671.41;;;9.89;87.69
15568;BME280;7885;42.596;23.044;2023-04-30T00:32:12;92670.72;;;9.71;87.83
15568;BME280;7885;42.596;23.044;2023-04-30T00:34:39;92677.75;;;9.57;86.54
15568;BME280;7885;42.596;23.044;2023-04-30T00:37:06;92677.38;;;9.48;85.94
15568;BME280;7885;42.596;23.044;2023-04-30T00:39:33;92683.22;;;9.50;88.30
15568;BME280;7885;42.596;23.044;2023-04-30T00:42:00;92678.97;;;9.42;90.17
15568;BME280;7885;42.596;23.044;2023-04-30T00:44:28;92684.38;;;9.46;89.60
15568;BME280;7885;42.596;23.044;2023-04-30T00:46:55;92670.78;;;9.49;91.27
15568;BME280;7885;42.596;23.044;2023-04-30T00:49:22;92675.41;;;9.56;91.85
15568;BME280;7885;42.596;23.044;2023-04-30T00:51:49;92679.28;;;9.62;89.41
15568;BME280;7885;42.596;23.044;2023-04-30T00:54:16;92687.03;;;9.63;87.83
15568;BME280;7885;42.596;23.044;2023-04-30T00:56:45;92668.81;;;9.57;90.19
15568;BME280;7885;42.596;23.044;2023-04-30T00:59:12;92674.59;;;9.70;89.88
15568;BME280;7885;42.596;23.044;2023-04-30T01:01:41;92674.22;;;9.71;88.07
15568;BME280;7885;42.596;23.044;2023-04-30T01:04:08;92676.94;;;9.68;88.21
15568;BME280;7885;42.596;23.044;2023-04-30T01:06:35;92650.56;;;9.64;88.60
15568;BME280;7885;42.596;23.044;2023-04-30T01:09:02;92662.13;;;9.76;88.58
15568;BME280;7885;42.596;23.044;2023-04-30T01:11:37;92661.41;;;9.72;87.93
15568;BME280;7885;42.596;23.044;2023-04-30T01:14:11;92668.34;;;9.80;88.07
15568;BME280;7885;42.596;23.044;2023-04-30T01:16:45;92672.97;;;9.83;88.15
15568;BME280;7885;42.596;23.044;2023-04-30T01:19:23;92668.34;;;9.80;88.06
15568;BME280;7885;42.596;23.044;2023-04-30T01:21:55;92656.31;;;9.77;88.30
15568;BME280;7885;42.596;23.044;2023-04-30T01:27:23;92664.78;;;9.90;88.73
15568;BME280;7885;42.596;23.044;2023-04-30T01:29:58;92663.63;;;9.91;88.72
15568;BME280;7885;42.596;23.044;2023-04-30T01:32:27;92636.50;;;9.80;88.78
15568;BME280;7885;42.596;23.044;2023-04-30T01:34:54;92658.19;;;9.91;89.05
15568;BME280;7885;42.596;23.044;2023-04-30T01:37:25;92663.25;;;9.92;89.12
15568;BME280;7885;42.596;23.044;2023-04-30T01:40:04;92672.91;;;9.97;89.26
15568;BME280;7885;42.596;23.044;2023-04-30T01:42:40;92658.19;;;9.91;89.40
15568;BME280;7885;42.596;23.044;2023-04-30T01:45:20;92674.09;;;9.99;89.60
15568;BME280;7885;42.596;23.044;2023-04-30T01:47:54;92668.63;;;10.03;89.97
15568;BME280;7885;42.596;23.044;2023-04-30T01:50:30;92671.34;;;10.03;90.35
15568;BME280;7885;42.596;23.044;2023-04-30T01:53:01;92655.88;;;9.93;90.04
15568;BME280;7885;42.596;23.044;2023-04-30T01:55:33;92670.59;;;9.99;90.44
15568;BME280;7885;42.596;23.044;2023-04-30T01:58:04;92660.50;;;9.96;90.14
15568;BME280;7885;42.596;23.044;2023-04-30T02:00:33;92665.13;;;10.02;90.11
15568;BME280;7885;42.596;23.044;2023-04-30T02:03:00;92656.25;;;9.95;89.52
15568;BME280;7885;42.596;23.044;2023-04-30T02:05:27;92656.97;;;10.02;89.65
15568;BME280;7885;42.596;23.044;2023-04-30T02:07:54;92647.28;;;9.98;90.28
15568;BME280;7885;42.596;23.044;2023-04-30T02:10:23;92667.41;;;10.11;90.36
15568;BME280;7885;42.596;23.044;2023-04-30T02:12:50;92657.34;;;10.04;90.37
15568;BME280;7885;42.596;23.044;2023-04-30T02:15:17;92657.31;;;10.11;90.33
15568;BME280;7885;42.596;23.044;2023-04-30T02:17:46;92649.59;;;10.03;90.48
15568;BME280;7885;42.596;23.044;2023-04-30T02:20:12;92657.75;;;10.06;90.57
15568;BME280;7885;42.596;23.044;2023-04-30T02:22:39;92655.78;;;10.07;90.42
15568;BME280;7885;42.596;23.044;2023-04-30T02:25:07;92650.78;;;9.98;90.58
15568;BME280;7885;42.596;23.044;2023-04-30T02:27:34;92668.22;;;10.04;91.28
15568;BME280;7885;42.596;23.044;2023-04-30T02:30:00;92663.56;;;10.05;90.77
15568;BME280;7885;42.596;23.044;2023-04-30T02:32:28;92673.63;;;10.08;90.18
15568;BME280;7885;42.596;23.044;2023-04-30T02:34:57;92662.75;;;10.08;90.52
15568;BME280;7885;42.596;23.044;2023-04-30T02:37:23;92663.53;;;10.12;90.96
15568;BME280;7885;42.596;23.044;2023-04-30T02:39:50;92654.22;;;10.09;90.43
15568;BME280;7885;42.596;23.044;2023-04-30T02:42:17;92665.06;;;10.20;89.90
15568;BME280;7885;42.596;23.044;2023-04-30T02:44:44;92658.09;;;10.16;89.41
15568;BME280;7885;42.596;23.044;2023-04-30T02:47:11;92632.94;;;9.94;89.99
15568;BME280;7885;42.596;23.044;2023-04-30T02:49:38;92666.25;;;10.12;91.21
15568;BME280;7885;42.596;23.044;2023-04-30T02:52:07;92668.19;;;10.15;91.19
15568;BME280;7885;42.596;23.044;2023-04-30T02:54:34;92642.66;;;9.95;91.11
15568;BME280;7885;42.596;23.044;2023-04-30T02:57:01;92662.34;;;10.13;90.59
15568;BME280;7885;42.596;23.044;2023-04-30T02:59:28;92651.88;;;10.08;90.68
15568;BME280;7885;42.596;23.044;2023-04-30T03:01:55;92655.00;;;10.10;90.44
15568;BME280;7885;42.596;23.044;2023-04-30T03:04:22;92665.88;;;10.10;90.69
15568;BME280;7885;42.596;23.044;2023-04-30T03:06:49;92660.84;;;10.01;90.71
15568;BME280;7885;42.596;23.044;2023-04-30T03:09:17;92656.56;;;10.04;90.76
15568;BME280;7885;42.596;23.044;2023-04-30T03:11:44;92660.06;;;10.01;90.49
15568;BME280;7885;42.596;23.044;2023-04-30T03:14:11;92663.63;;;9.94;90.44
15568;BME280;7885;42.596;23.044;2023-04-30T03:16:38;92677.63;;;9.89;90.89
15568;BME280;7885;42.596;23.044;2023-04-30T03:19:05;92676.84;;;9.92;91.27
15568;BME280;7885;42.596;23.044;2023-04-30T03:21:31;92679.22;;;9.73;91.48
15568;BME280;7885;42.596;23.044;2023-04-30T03:23:58;92675.69;;;9.83;92.42
15568;BME280;7885;42.596;23.044;2023-04-30T03:26:26;92677.34;;;9.59;91.45
15568;BME280;7885;42.596;23.044;2023-04-30T03:28:53;92664.63;;;9.35;92.52
15568;BME280;7885;42.596;23.044;2023-04-30T03:31:20;92668.50;;;9.34;93.65
15568;BME280;7885;42.596;23.044;2023-04-30T03:33:47;92685.53;;;9.41;94.88
15568;BME280;7885;42.596;23.044;2023-04-30T03:36:14;92673.94;;;9.41;95.07
15568;BME280;7885;42.596;23.044;2023-04-30T03:38:41;92686.72;;;9.40;95.44
15568;BME280;7885;42.596;23.044;2023-04-30T03:41:08;92690.56;;;9.50;96.27
15568;BME280;7885;42.596;23.044;2023-04-30T03:43:36;92678.16;;;9.45;95.43
15568;BME280;7885;42.596;23.044;2023-04-30T03:46:03;92702.94;;;9.72;95.17
15568;BME280;7885;42.596;23.044;2023-04-30T03:48:30;92694.81;;;9.61;95.77
15568;BME280;7885;42.596;23.044;2023-04-30T03:50:57;92699.44;;;9.68;95.07
15568;BME280;7885;42.596;23.044;2023-04-30T03:53:24;92702.16;;;9.75;94.24
15568;BME280;7885;42.596;23.044;2023-04-30T03:55:52;92712.19;;;9.89;93.31
15568;BME280;7885;42.596;23.044;2023-04-30T03:58:19;92710.97;;;9.93;94.15
15568;BME280;7885;42.596;23.044;2023-04-30T04:00:47;92714.06;;;10.06;93.74
15568;BME280;7885;42.596;23.044;2023-04-30T04:03:15;92711.69;;;10.08;94.49
15568;BME280;7885;42.596;23.044;2023-04-30T04:05:42;92703.94;;;10.13;94.33
15568;BME280;7885;42.596;23.044;2023-04-30T04:08:09;92712.47;;;10.19;93.98
15568;BME280;7885;42.596;23.044;2023-04-30T04:10:36;92705.88;;;10.17;94.54
15568;BME280;7885;42.596;23.044;2023-04-30T04:13:03;92713.22;;;10.23;94.52
15568;BME280;7885;42.596;23.044;2023-04-30T04:15:30;92711.59;;;10.36;94.25
15568;BME280;7885;42.596;23.044;2023-04-30T04:17:59;92689.88;;;10.26;93.62
15568;BME280;7885;42.596;23.044;2023-04-30T04:20:25;92707.28;;;10.42;94.04
15568;BME280;7885;42.596;23.044;2023-04-30T04:22:54;92713.09;;;10.48;93.11
15568;BME280;7885;42.596;23.044;2023-04-30T04:25:21;92721.16;;;10.55;93.20
15568;BME280;7885;42.596;23.044;2023-04-30T04:27:49;92726.22;;;10.56;93.27
15568;BME280;7885;42.596;23.044;2023-04-30T04:30:16;92735.50;;;10.66;92.89
15568;BME280;7885;42.596;23.044;2023-04-30T04:32:43;92735.47;;;10.70;93.37
15568;BME280;7885;42.596;23.044;2023-04-30T04:35:15;92732.69;;;10.77;93.20
15568;BME280;7885;42.596;23.044;2023-04-30T04:37:43;92727.97;;;10.84;93.45
15568;BME280;7885;42.596;23.044;2023-04-30T04:40:10;92732.25;;;10.89;93.05
15568;BME280;7885;42.596;23.044;2023-04-30T04:42:38;92721.38;;;10.85;91.78
15568;BME280;7885;42.596;23.044;2023-04-30T04:45:06;92730.69;;;10.88;91.86
15568;BME280;7885;42.596;23.044;2023-04-30T04:47:33;92718.34;;;10.73;92.45
15568;BME280;7885;42.596;23.044;2023-04-30T04:50:00;92731.47;;;10.85;92.71
15568;BME280;7885;42.596;23.044;2023-04-30T04:52:29;92735.28;;;10.98;93.00
15568;BME280;7885;42.596;23.044;2023-04-30T04:54:55;92740.31;;;11.03;91.70
15568;BME280;7885;42.596;23.044;2023-04-30T04:57:22;92749.94;;;11.11;91.71
15568;BME280;7885;42.596;23.044;2023-04-30T04:59:50;92745.25;;;11.15;90.94
15568;BME280;7885;42.596;23.044;2023-04-30T05:02:17;92742.94;;;11.13;91.25
15568;BME280;7885;42.596;23.044;2023-04-30T05:04:44;92746.34;;;11.21;90.54
15568;BME280;7885;42.596;23.044;2023-04-30T05:07:15;92748.25;;;11.28;90.48
15568;BME280;7885;42.596;23.044;2023-04-30T05:09:43;92723.47;;;11.15;90.04
15568;BME280;7885;42.596;23.044;2023-04-30T05:12:10;92741.56;;;11.36;90.20
15568;BME280;7885;42.596;23.044;2023-04-30T05:14:37;92749.34;;;11.37;89.45
15568;BME280;7885;42.596;23.044;2023-04-30T05:17:03;92737.75;;;11.30;89.32
15568;BME280;7885;42.596;23.044;2023-04-30T05:19:31;92764.41;;;11.49;89.68
15568;BME280;7885;42.596;23.044;2023-04-30T05:21:58;92751.19;;;11.47;89.28
15568;BME280;7885;42.596;23.044;2023-04-30T05:24:25;92767.47;;;11.58;88.60
15568;BME280;7885;42.596;23.044;2023-04-30T05:26:53;92758.50;;;11.57;88.77
15568;BME280;7885;42.596;23.044;2023-04-30T05:29:20;92762.69;;;11.65;88.72
15568;BME280;7885;42.596;23.044;2023-04-30T05:31:47;92751.00;;;11.69;87.74
15568;BME280;7885;42.596;23.044;2023-04-30T05:34:14;92763.78;;;11.79;87.52
15568;BME280;7885;42.596;23.044;2023-04-30T05:36:41;92759.47;;;11.81;86.77
15568;BME280;7885;42.596;23.044;2023-04-30T05:39:07;92756.28;;;11.86;86.70
15568;BME280;7885;42.596;23.044;2023-04-30T05:41:34;92744.63;;;11.86;86.28
15568;BME280;7885;42.596;23.044;2023-04-30T05:44:03;92762.34;;;12.01;85.96
15568;BME280;7885;42.596;23.044;2023-04-30T05:46:30;92760.72;;;12.07;86.47
15568;BME280;7885;42.596;23.044;2023-04-30T05:48:57;92756.00;;;12.11;86.26
15568;BME280;7885;42.596;23.044;2023-04-30T05:51:24;92753.66;;;12.13;85.88
15568;BME280;7885;42.596;23.044;2023-04-30T05:53:52;92751.28;;;12.15;85.51
15568;BME280;7885;42.596;23.044;2023-04-30T05:56:19;92753.50;;;12.27;85.85
15568;BME280;7885;42.596;23.044;2023-04-30T05:58:45;92770.09;;;12.40;86.14
15568;BME280;7885;42.596;23.044;2023-04-30T06:01:14;92764.94;;;12.45;86.67
15568;BME280;7885;42.596;23.044;2023-04-30T06:03:41;92768.72;;;12.55;86.37
15568;BME280;7885;42.596;23.044;2023-04-30T06:06:08;92773.19;;;12.72;86.34
15568;BME280;7885;42.596;23.044;2023-04-30T06:08:35;92748.19;;;12.74;85.02
15568;BME280;7885;42.596;23.044;2023-04-30T06:11:02;92777.44;;;13.00;84.24
15568;BME280;7885;42.596;23.044;2023-04-30T06:13:30;92775.69;;;13.17;83.72
15568;BME280;7885;42.596;23.044;2023-04-30T06:15:57;92789.00;;;13.38;82.62
15568;BME280;7885;42.596;23.044;2023-04-30T06:18:25;92783.63;;;13.57;81.66
15568;BME280;7885;42.596;23.044;2023-04-30T06:20:52;92781.78;;;13.74;78.92
15568;BME280;7885;42.596;23.044;2023-04-30T06:23:19;92778.91;;;13.81;77.39
15568;BME280;7885;42.596;23.044;2023-04-30T06:25:45;92778.34;;;13.90;77.07
15568;BME280;7885;42.596;23.044;2023-04-30T06:28:12;92796.06;;;14.05;76.82
15568;BME280;7885;42.596;23.044;2023-04-30T06:30:39;92789.56;;;14.18;75.45
15568;BME280;7885;42.596;23.044;2023-04-30T06:33:06;92786.75;;;14.22;75.78
15568;BME280;7885;42.596;23.044;2023-04-30T06:35:35;92790.59;;;14.25;75.07
15568;BME280;7885;42.596;23.044;2023-04-30T06:38:02;92789.03;;;14.27;75.72
15568;BME280;7885;42.596;23.044;2023-04-30T06:40:29;92790.69;;;14.21;77.04
15568;BME280;7885;42.596;23.044;2023-04-30T06:42:56;92783.50;;;14.07;77.46
15568;BME280;7885;42.596;23.044;2023-04-30T06:45:23;92790.47;;;14.12;77.63
15568;BME280;7885;42.596;23.044;2023-04-30T06:47:50;92785.78;;;14.12;78.52
15568;BME280;7885;42.596;23.044;2023-04-30T06:50:17;92787.47;;;14.26;77.85
15568;BME280;7885;42.596;23.044;2023-04-30T06:52:47;92793.59;;;14.53;76.01
15568;BME280;7885;42.596;23.044;2023-04-30T06:55:14;92772.19;;;14.68;75.43
15568;BME280;7885;42.596;23.044;2023-04-30T06:57:41;92795.16;;;15.10;72.55
15568;BME280;7885;42.596;23.044;2023-04-30T07:00:08;92780.84;;;15.35;70.14
15568;BME280;7885;42.596;23.044;2023-04-30T07:02:35;92786.81;;;15.82;70.32
15568;BME280;7885;42.596;23.044;2023-04-30T07:05:02;92782.31;;;16.04;67.96
15568;BME280;7885;42.596;23.044;2023-04-30T07:07:29;92791.69;;;16.35;66.18
15568;BME280;7885;42.596;23.044;2023-04-30T07:09:58;92795.25;;;16.48;64.87
15568;BME280;7885;42.596;23.044;2023-04-30T07:12:25;92786.69;;;16.46;63.17
15568;BME280;7885;42.596;23.044;2023-04-30T07:14:52;92808.72;;;16.59;61.37
15568;BME280;7885;42.596;23.044;2023-04-30T07:17:19;92798.84;;;16.61;61.85
15568;BME280;7885;42.596;23.044;2023-04-30T07:19:46;92796.78;;;16.49;61.20
15568;BME280;7885;42.596;23.044;2023-04-30T07:22:13;92806.44;;;16.57;61.07
15568;BME280;7885;42.596;23.044;2023-04-30T07:24:40;92809.50;;;16.59;60.90
15568;BME280;7885;42.596;23.044;2023-04-30T07:27:08;92801.63;;;16.45;60.66
15568;BME280;7885;42.596;23.044;2023-04-30T07:29:35;92801.44;;;16.24;59.75
15568;BME280;7885;42.596;23.044;2023-04-30T07:32:02;92803.94;;;16.02;61.32
15568;BME280;7885;42.596;23.044;2023-04-30T07:34:29;92800.09;;;15.83;62.26
15568;BME280;7885;42.596;23.044;2023-04-30T07:36:56;92801.91;;;15.74;62.29
15568;BME280;7885;42.596;23.044;2023-04-30T07:39:23;92814.59;;;15.51;63.41
15568;BME280;7885;42.596;23.044;2023-04-30T07:41:50;92804.28;;;15.39;63.66
15568;BME280;7885;42.596;23.044;2023-04-30T07:44:18;92800.66;;;15.26;64.25
15568;BME280;7885;42.596;23.044;2023-04-30T07:46:46;92807.66;;;15.11;64.78
15568;BME280;7885;42.596;23.044;2023-04-30T07:49:12;92803.53;;;15.03;65.43
15568;BME280;7885;42.596;23.044;2023-04-30T07:51:40;92806.06;;;14.94;66.44
15568;BME280;7885;42.596;23.044;2023-04-30T07:54:07;92816.94;;;14.97;66.22
15568;BME280;7885;42.596;23.044;2023-04-30T07:56:34;92808.75;;;14.78;66.30
15568;BME280;7885;42.596;23.044;2023-04-30T07:59:01;92817.47;;;14.73;66.38
15568;BME280;7885;42.596;23.044;2023-04-30T08:01:29;92824.56;;;14.70;66.77
15568;BME280;7885;42.596;23.044;2023-04-30T08:03:56;92820.72;;;14.68;67.31
15568;BME280;7885;42.596;23.044;2023-04-30T08:06:23;92821.06;;;14.70;67.04
15568;BME280;7885;42.596;23.044;2023-04-30T08:08:51;92811.31;;;14.69;66.56
15568;BME280;7885;42.596;23.044;2023-04-30T08:11:18;92817.03;;;14.94;66.94
15568;BME280;7885;42.596;23.044;2023-04-30T08:13:46;92803.94;;;15.01;66.71
15568;BME280;7885;42.596;23.044;2023-04-30T08:16:12;92820.88;;;15.32;65.79
15568;BME280;7885;42.596;23.044;2023-04-30T08:18:41;92826.03;;;15.46;65.04
15568;BME280;7885;42.596;23.044;2023-04-30T08:21:10;92810.84;;;15.61;64.73
15568;BME280;7885;42.596;23.044;2023-04-30T08:23:37;92817.34;;;15.84;65.57
15568;BME280;7885;42.596;23.044;2023-04-30T08:26:04;92820.38;;;16.18;62.08
15568;BME280;7885;42.596;23.044;2023-04-30T08:28:31;92827.84;;;16.62;61.04
15568;BME280;7885;42.596;23.044;2023-04-30T08:30:57;92828.22;;;17.06;60.49
15568;BME280;7885;42.596;23.044;2023-04-30T08:33:24;92827.97;;;17.67;58.11
15568;BME280;7885;42.596;23.044;2023-04-30T08:35:53;92828.41;;;18.25;56.53
15568;BME280;7885;42.596;23.044;2023-04-30T08:38:20;92818.34;;;18.44;55.68
15568;BME280;7885;42.596;23.044;2023-04-30T08:40:51;92811.34;;;18.64;54.94
15568;BME280;7885;42.596;23.044;2023-04-30T08:43:22;92803.28;;;18.92;53.48
15568;BME280;7885;42.596;23.044;2023-04-30T08:45:50;92786.34;;;19.33;51.22
15568;BME280;7885;42.596;23.044;2023-04-30T08:48:18;92803.59;;;19.86;50.22
15568;BME280;7885;42.596;23.044;2023-04-30T08:50:45;92801.38;;;20.21;49.54
15568;BME280;7885;42.596;23.044;2023-04-30T08:53:14;92759.16;;;20.11;50.47
15568;BME280;7885;42.596;23.044;2023-04-30T08:55:42;92793.31;;;20.36;50.24
15568;BME280;7885;42.596;23.044;2023-04-30T08:58:09;92770.28;;;20.48;49.94
15568;BME280;7885;42.596;23.044;2023-04-30T09:00:36;92795.28;;;21.08;51.20
15568;BME280;7885;42.596;23.044;2023-04-30T09:03:04;92773.16;;;21.59;46.79
15568;BME280;7885;42.596;23.044;2023-04-30T09:05:31;92783.25;;;22.13;46.82
15568;BME280;7885;42.596;23.044;2023-04-30T09:07:58;92776.44;;;22.23;46.38
15568;BME280;7885;42.596;23.044;2023-04-30T09:10:26;92782.19;;;22.34;46.31
15568;BME280;7885;42.596;23.044;2023-04-30T09:12:59;92779.03;;;22.27;44.22
15568;BME280;7885;42.596;23.044;2023-04-30T09:15:27;92772.50;;;22.53;44.52
15568;BME280;7885;42.596;23.044;2023-04-30T09:18:08;92778.94;;;22.98;43.71
15568;BME280;7885;42.596;23.044;2023-04-30T09:20:36;92767.19;;;23.03;42.27
15568;BME280;7885;42.596;23.044;2023-04-30T09:23:07;92770.59;;;22.59;42.39
15568;BME280;7885;42.596;23.044;2023-04-30T09:25:39;92765.19;;;21.94;42.62
15568;BME280;7885;42.596;23.044;2023-04-30T09:28:10;92769.66;;;21.49;44.11
15568;BME280;7885;42.596;23.044;2023-04-30T09:30:37;92764.69;;;21.02;45.20
15568;BME280;7885;42.596;23.044;2023-04-30T09:33:05;92762.88;;;20.81;46.08
15568;BME280;7885;42.596;23.044;2023-04-30T09:35:33;92751.06;;;20.53;45.31
15568;BME280;7885;42.596;23.044;2023-04-30T09:38:00;92734.34;;;20.30;45.63
15568;BME280;7885;42.596;23.044;2023-04-30T09:40:35;92741.34;;;20.22;44.85
15568;BME280;7885;42.596;23.044;2023-04-30T09:43:03;92749.44;;;19.89;47.50
15568;BME280;7885;42.596;23.044;2023-04-30T09:45:40;92744.31;;;19.69;49.03
15568;BME280;7885;42.596;23.044;2023-04-30T09:48:09;92739.72;;;19.66;49.32
15568;BME280;7885;42.596;23.044;2023-04-30T09:50:37;92750.53;;;19.42;49.36
15568;BME280;7885;42.596;23.044;2023-04-30T09:53:05;92737.75;;;19.36;49.71
15568;BME280;7885;42.596;23.044;2023-04-30T09:55:34;92750.09;;;19.44;51.17
15568;BME280;7885;42.596;23.044;2023-04-30T09:58:05;92731.91;;;19.64;49.86
15568;BME280;7885;42.596;23.044;2023-04-30T10:00:33;92736.19;;;20.51;47.82
15568;BME280;7885;42.596;23.044;2023-04-30T10:03:05;92709.81;;;21.10;45.14
15568;BME280;7885;42.596;23.044;2023-04-30T10:05:35;92726.09;;;21.08;45.19
15568;BME280;7885;42.596;23.044;2023-04-30T10:08:06;92714.44;;;21.46;46.08
15568;BME280;7885;42.596;23.044;2023-04-30T10:10:33;92721.75;;;21.25;45.27
15568;BME280;7885;42.596;23.044;2023-04-30T10:13:09;92735.03;;;20.94;46.02
15568;BME280;7885;42.596;23.044;2023-04-30T10:15:38;92730.19;;;20.61;46.73
15568;BME280;7885;42.596;23.044;2023-04-30T10:18:12;92746.09;;;20.21;46.46
15568;BME280;7885;42.596;23.044;2023-04-30T10:20:44;92737.88;;;19.63;46.31
15568;BME280;7885;42.596;23.044;2023-04-30T10:23:12;92730.13;;;19.09;47.49
15568;BME280;7885;42.596;23.044;2023-04-30T10:25:40;92734.63;;;18.94;48.72
15568;BME280;7885;42.596;23.044;2023-04-30T10:28:09;92741.56;;;18.98;48.84
15568;BME280;7885;42.596;23.044;2023-04-30T10:30:37;92730.25;;;19.05;49.76
15568;BME280;7885;42.596;23.044;2023-04-30T10:33:17;92725.91;;;19.66;48.28
15568;BME280;7885;42.596;23.044;2023-04-30T10:35:50;92727.47;;;19.76;45.36
15568;BME280;7885;42.596;23.044;2023-04-30T10:38:21;92724.56;;;19.71;43.77
15568;BME280;7885;42.596;23.044;2023-04-30T10:40:49;92729.13;;;19.64;44.62
15568;BME280;7885;42.596;23.044;2023-04-30T10:43:18;92735.59;;;19.71;45.18
15568;BME280;7885;42.596;23.044;2023-04-30T10:45:46;92725.75;;;19.60;48.60
15568;BME280;7885;42.596;23.044;2023-04-30T10:48:14;92719.91;;;19.58;49.66
15568;BME280;7885;42.596;23.044;2023-04-30T10:50:49;92730.63;;;19.47;53.97
15568;BME280;7885;42.596;23.044;2023-04-30T10:53:18;92712.88;;;19.66;50.76
15568;BME280;7885;42.596;23.044;2023-04-30T10:55:47;92720.66;;;20.53;49.64
15568;BME280;7885;42.596;23.044;2023-04-30T10:58:27;92719.56;;;21.38;48.81
15568;BME280;7885;42.596;23.044;2023-04-30T11:01:05;92706.94;;;21.70;43.45
15568;BME280;7885;42.596;23.044;2023-04-30T11:03:34;92722.03;;;22.02;43.66
15568;BME280;7885;42.596;23.044;2023-04-30T11:06:07;92728.25;;;21.88;42.62
15568;BME280;7885;42.596;23.044;2023-04-30T11:08:35;92719.13;;;21.31;42.91
15568;BME280;7885;42.596;23.044;2023-04-30T11:11:03;92709.03;;;21.00;42.91
15568;BME280;7885;42.596;23.044;2023-04-30T11:13:44;92719.97;;;20.95;44.16
15568;BME280;7885;42.596;23.044;2023-04-30T11:16:11;92717.28;;;21.37;44.10
15568;BME280;7885;42.596;23.044;2023-04-30T11:18:43;92711.34;;;21.86;41.27
15568;BME280;7885;42.596;23.044;2023-04-30T11:21:10;92710.84;;;22.20;39.16
15568;BME280;7885;42.596;23.044;2023-04-30T11:23:40;92699.88;;;22.02;39.58
15568;BME280;7885;42.596;23.044;2023-04-30T11:26:08;92708.81;;;21.97;40.33
15568;BME280;7885;42.596;23.044;2023-04-30T11:28:36;92707.03;;;21.85;40.24
15568;BME280;7885;42.596;23.044;2023-04-30T11:31:04;92712.56;;;21.85;40.03
15568;BME280;7885;42.596;23.044;2023-04-30T11:33:33;92700.97;;;21.62;39.86
15568;BME280;7885;42.596;23.044;2023-04-30T11:36:00;92705.16;;;21.25;39.35
15568;BME280;7885;42.596;23.044;2023-04-30T11:38:28;92684.91;;;21.01;39.57
15568;BME280;7885;42.596;23.044;2023-04-30T11:40:55;92705.38;;;21.12;40.50
15568;BME280;7885;42.596;23.044;2023-04-30T11:43:23;92696.94;;;20.80;39.70
15568;BME280;7885;42.596;23.044;2023-04-30T11:46:06;92697.63;;;20.56;39.48
15568;BME280;7885;42.596;23.044;2023-04-30T11:48:34;92701.63;;;20.28;40.29
15568;BME280;7885;42.596;23.044;2023-04-30T11:51:19;92698.66;;;20.77;41.26
15568;BME280;7885;42.596;23.044;2023-04-30T11:53:47;92701.63;;;21.25;39.01
15568;BME280;7885;42.596;23.044;2023-04-30T11:56:17;92708.47;;;21.38;39.31
15568;BME280;7885;42.596;23.044;2023-04-30T11:58:45;92694.34;;;21.36;38.08
15568;BME280;7885;42.596;23.044;2023-04-30T12:01:14;92692.22;;;21.31;39.52
15568;BME280;7885;42.596;23.044;2023-04-30T12:03:43;92687.19;;;21.53;39.88
15568;BME280;7885;42.596;23.044;2023-04-30T12:06:10;92684.56;;;21.26;37.89
15568;BME280;7885;42.596;23.044;2023-04-30T12:08:40;92683.31;;;21.84;38.36
15568;BME280;7885;42.596;23.044;2023-04-30T12:11:18;92682.53;;;22.16;35.39
15568;BME280;7885;42.596;23.044;2023-04-30T12:13:49;92692.59;;;22.67;35.31
15568;BME280;7885;42.596;23.044;2023-04-30T12:16:17;92691.84;;;23.10;35.59
15568;BME280;7885;42.596;23.044;2023-04-30T12:18:44;92664.88;;;22.81;33.04
15568;BME280;7885;42.596;23.044;2023-04-30T12:21:11;92678.84;;;22.87;33.39
15568;BME280;7885;42.596;23.044;2023-04-30T12:23:39;92680.75;;;22.81;34.02
15568;BME280;7885;42.596;23.044;2023-04-30T12:26:05;92645.16;;;22.79;34.26
15568;BME280;7885;42.596;23.044;2023-04-30T12:28:33;92679.78;;;23.42;33.88
15568;BME280;7885;42.596;23.044;2023-04-30T12:31:00;92652.97;;;23.10;32.94
15568;BME280;7885;42.596;23.044;2023-04-30T12:33:30;92668.03;;;22.89;32.16
15568;BME280;7885;42.596;23.044;2023-04-30T12:35:57;92636.81;;;22.79;34.38
15568;BME280;7885;42.596;23.044;2023-04-30T12:38:24;92672.97;;;23.29;34.34
15568;BME280;7885;42.596;23.044;2023-04-30T12:40:52;92672.44;;;23.74;33.89
15568;BME280;7885;42.596;23.044;2023-04-30T12:43:18;92680.25;;;23.76;32.98
15568;BME280;7885;42.596;23.044;2023-04-30T12:45:47;92673.13;;;23.89;31.06
15568;BME280;7885;42.596;23.044;2023-04-30T12:48:16;92671.47;;;23.97;31.56
15568;BME280;7885;42.596;23.044;2023-04-30T12:50:51;92676.97;;;23.57;32.31
15568;BME280;7885;42.596;23.044;2023-04-30T12:53:18;92677.66;;;23.37;32.31
15568;BME280;7885;42.596;23.044;2023-04-30T12:56:07;92673.28;;;22.87;33.15
15568;BME280;7885;42.596;23.044;2023-04-30T13:01:03;92665.72;;;22.20;35.60
15568;BME280;7885;42.596;23.044;2023-04-30T13:03:30;92673.63;;;22.12;36.19
15568;BME280;7885;42.596;23.044;2023-04-30T13:05:59;92658.75;;;21.77;37.13
15568;BME280;7885;42.596;23.044;2023-04-30T13:08:27;92684.03;;;21.70;38.10
15568;BME280;7885;42.596;23.044;2023-04-30T13:10:54;92680.84;;;21.29;41.95
15568;BME280;7885;42.596;23.044;2023-04-30T13:13:21;92659.06;;;20.53;44.58